createdAt,value
2023-05-23T00:01:07.293Z,98452.59
2023-05-23T00:03:35.164Z,98453.56
2023-05-23T00:06:02.617Z,98451.94
2023-05-23T00:08:29.746Z,98450.66
2023-05-23T00:10:57.116Z,98447.34
2023-05-23T00:13:24.326Z,98451.00
2023-05-23T00:15:52.309Z,98447.69
2023-05-23T00:18:19.778Z,98446.69
2023-05-23T00:20:47.087Z,98444.41
2023-05-23T00:23:19.128Z,98451.28
2023-05-23T00:25:52.965Z,98444.72
2023-05-23T00:28:20.793Z,98445.87
2023-05-23T00:30:52.193Z,98449.00
2023-05-23T00:33:22.164Z,98449.00
2023-05-23T00:35:49.852Z,98449.34
2023-05-23T00:38:17.500Z,98441.75
2023-05-23T00:40:44.655Z,98449.69
2023-05-23T00:43:12.482Z,98438.66
2023-05-23T00:45:40.069Z,98446.72
2023-05-23T00:48:08.086Z,98449.34
2023-05-23T00:50:36.248Z,98451.00
2023-05-23T00:53:04.166Z,98452.81
2023-05-23T00:55:32.002Z,98446.87
2023-05-23T00:57:59.454Z,98446.87
2023-05-23T01:00:26.863Z,98457.22
2023-05-23T01:02:54.982Z,98465.44
2023-05-23T01:05:24.978Z,98452.13
2023-05-23T01:07:52.911Z,98452.66
2023-05-23T01:10:22.461Z,98452.31
2023-05-23T01:13:16.144Z,98446.22
2023-05-23T01:16:03.038Z,98446.37
2023-05-23T01:18:54.613Z,98437.66
2023-05-23T01:21:23.161Z,98437.84
2023-05-23T01:24:13.853Z,98433.53
2023-05-23T01:26:59.219Z,98435.84
2023-05-23T01:29:35.625Z,98428.94
2023-05-23T01:32:06.738Z,98425.66
2023-05-23T01:34:35.828Z,98428.12
2023-05-23T01:37:08.675Z,98425.00
2023-05-23T01:39:37.272Z,98420.88
2023-05-23T01:42:04.769Z,98412.50
2023-05-23T01:44:34.658Z,98418.09
2023-05-23T01:47:06.211Z,98419.06
2023-05-23T01:49:34.191Z,98416.56
2023-05-23T01:52:02.248Z,98422.69
2023-05-23T01:54:30.159Z,98425.16
2023-05-23T01:57:01.608Z,98417.41
2023-05-23T01:59:29.076Z,98413.28
2023-05-23T02:01:57.530Z,98410.84
2023-05-23T02:04:24.926Z,98405.91
2023-05-23T02:06:52.087Z,98409.50
2023-05-23T02:09:19.362Z,98409.50
2023-05-23T02:11:46.861Z,98407.34
2023-05-23T02:14:13.998Z,98407.53
2023-05-23T02:16:41.215Z,98411.28
2023-05-23T02:19:08.730Z,98408.00
2023-05-23T02:21:36.338Z,98409.81
2023-05-23T02:24:03.782Z,98416.06
2023-05-23T02:26:30.972Z,98418.00
2023-05-23T02:28:58.327Z,98409.47
2023-05-23T02:31:25.716Z,98407.81
2023-05-23T02:33:53.689Z,98396.50
2023-05-23T02:36:21.704Z,98402.25
2023-05-23T02:38:48.852Z,98401.59
2023-05-23T02:41:17.405Z,98401.75
2023-05-23T02:43:47.950Z,98404.38
2023-05-23T02:46:16.137Z,98401.91
2023-05-23T02:48:43.369Z,98398.78
2023-05-23T02:51:13.753Z,98397.47
2023-05-23T02:53:41.287Z,98393.66
2023-05-23T02:56:08.771Z,98392.84
2023-05-23T02:58:36.278Z,98396.28
2023-05-23T03:01:04.932Z,98395.66
2023-05-23T03:03:33.830Z,98391.88
2023-05-23T03:06:03.358Z,98388.94
2023-05-23T03:08:30.778Z,98387.44
2023-05-23T03:10:57.976Z,98394.03
2023-05-23T03:13:25.355Z,98390.41
2023-05-23T03:15:52.622Z,98397.31
2023-05-23T03:18:20.703Z,98398.97
2023-05-23T03:20:48.131Z,98393.37
2023-05-23T03:23:15.214Z,98398.31
2023-05-23T03:25:43.339Z,98399.97
2023-05-23T03:28:12.253Z,98400.13
2023-05-23T03:30:39.352Z,98403.91
2023-05-23T03:33:07.422Z,98398.84
2023-05-23T03:35:34.902Z,98391.94
2023-05-23T03:38:02.125Z,98400.34
2023-05-23T03:40:29.247Z,98396.72
2023-05-23T03:43:06.560Z,98395.22
2023-05-23T03:45:34.054Z,98397.69
2023-05-23T03:48:02.263Z,98397.38
2023-05-23T03:50:30.552Z,98402.31
2023-05-23T03:52:57.623Z,98400.81
2023-05-23T03:55:25.515Z,98397.53
2023-05-23T03:57:52.836Z,98396.34
2023-05-23T04:00:20.092Z,98398.78
2023-05-23T04:02:51.975Z,98406.34
2023-05-23T04:05:19.393Z,98402.19
2023-05-23T04:07:46.858Z,98400.66
2023-05-23T04:10:14.951Z,98398.31
2023-05-23T04:12:42.929Z,98397.47
2023-05-23T04:15:11.401Z,98397.38
2023-05-23T04:17:40.891Z,98400.25
2023-05-23T04:20:09.775Z,98396.72
2023-05-23T04:22:37.173Z,98403.66
2023-05-23T04:25:06.436Z,98396.00
2023-05-23T04:27:36.859Z,98390.94
2023-05-23T04:30:08.226Z,98393.63
2023-05-23T04:32:36.504Z,98391.66
2023-05-23T04:35:04.461Z,98393.53
2023-05-23T04:37:33.097Z,98394.34
2023-05-23T04:40:01.219Z,98401.25
2023-05-23T04:42:29.444Z,98401.53
2023-05-23T04:44:58.394Z,98405.22
2023-05-23T04:47:28.591Z,98399.09
2023-05-23T04:49:57.542Z,98402.94
2023-05-23T04:52:25.520Z,98399.94
2023-05-23T04:54:54.095Z,98402.94
2023-05-23T04:57:22.184Z,98404.41
2023-05-23T04:59:49.439Z,98404.19
2023-05-23T05:02:16.677Z,98402.91
2023-05-23T05:04:44.471Z,98402.09
2023-05-23T05:07:11.871Z,98413.19
2023-05-23T05:09:39.431Z,98401.37
2023-05-23T05:12:07.978Z,98397.81
2023-05-23T05:14:35.945Z,98402.94
2023-05-23T05:17:04.209Z,98399.69
2023-05-23T05:19:33.903Z,98400.31
2023-05-23T05:22:01.410Z,98390.53
2023-05-23T05:24:29.856Z,98393.78
2023-05-23T05:26:57.342Z,98397.88
2023-05-23T05:29:25.330Z,98398.69
2023-05-23T05:31:53.880Z,98397.09
2023-05-23T05:34:21.361Z,98401.59
2023-05-23T05:36:48.760Z,98405.66
2023-05-23T05:39:16.275Z,98395.44
2023-05-23T05:41:43.696Z,98400.72
2023-05-23T05:44:11.065Z,98395.97
2023-05-23T05:46:38.205Z,98403.91
2023-05-23T05:49:05.665Z,98404.28
2023-05-23T05:51:32.850Z,98407.19
2023-05-23T05:53:59.966Z,98399.78
2023-05-23T05:56:28.084Z,98400.19
2023-05-23T05:58:55.360Z,98408.44
2023-05-23T06:01:23.490Z,98405.12
2023-05-23T06:03:51.148Z,98403.97
2023-05-23T06:06:18.578Z,98399.56
2023-05-23T06:08:46.937Z,98400.78
2023-05-23T06:11:16.668Z,98401.28
2023-05-23T06:13:43.934Z,98404.62
2023-05-23T06:16:11.185Z,98405.69
2023-05-23T06:18:39.282Z,98406.75
2023-05-23T06:21:07.051Z,98400.44
2023-05-23T06:23:34.758Z,98405.59
2023-05-23T06:26:03.034Z,98405.84
2023-05-23T06:28:30.194Z,98395.91
2023-05-23T06:30:57.335Z,98397.22
2023-05-23T06:33:24.820Z,98408.94
2023-05-23T06:35:52.959Z,98404.25
2023-05-23T06:38:20.718Z,98401.94
2023-05-23T06:40:48.955Z,98394.91
2023-05-23T06:43:16.237Z,98400.25
2023-05-23T06:45:46.753Z,98400.72
2023-05-23T06:48:14.199Z,98405.78
2023-05-23T06:50:41.684Z,98405.59
2023-05-23T06:53:09.512Z,98403.66
2023-05-23T06:55:36.983Z,98398.38
2023-05-23T06:58:04.839Z,98397.69
2023-05-23T07:00:33.184Z,98402.00
2023-05-23T07:03:03.541Z,98401.50
2023-05-23T07:05:33.322Z,98396.56
2023-05-23T07:08:01.946Z,98394.28
2023-05-23T07:10:29.651Z,98397.91
2023-05-23T07:12:58.862Z,98396.84
2023-05-23T07:15:26.930Z,98391.28
2023-05-23T07:17:54.723Z,98391.66
2023-05-23T07:20:22.017Z,98392.22
2023-05-23T07:22:51.631Z,98385.25
2023-05-23T07:25:19.261Z,98382.47
2023-05-23T07:27:46.502Z,98386.69
2023-05-23T07:30:14.374Z,98384.47
2023-05-23T07:32:42.191Z,98394.22
2023-05-23T07:35:09.907Z,98393.28
2023-05-23T07:37:37.485Z,98384.75
2023-05-23T07:40:05.756Z,98395.00
2023-05-23T07:42:33.219Z,98392.47
2023-05-23T07:45:01.137Z,98394.72
2023-05-23T07:47:28.637Z,98393.53
2023-05-23T07:49:55.807Z,98393.59
2023-05-23T07:52:24.099Z,98393.03
2023-05-23T07:54:51.342Z,98392.91
2023-05-23T07:57:18.638Z,98387.41
2023-05-23T07:59:46.097Z,98392.75
2023-05-23T08:02:13.280Z,98388.72
2023-05-23T08:04:40.936Z,98393.00
2023-05-23T08:07:09.735Z,98393.00
2023-05-23T08:09:38.667Z,98391.31
2023-05-23T08:12:07.648Z,98387.41
2023-05-23T08:14:49.049Z,98386.72
2023-05-23T08:17:18.031Z,98390.03
2023-05-23T08:19:46.849Z,98385.19
2023-05-23T08:22:14.048Z,98400.31
2023-05-23T08:24:41.586Z,98393.34
2023-05-23T08:27:09.539Z,98390.59
2023-05-23T08:29:37.405Z,98397.16
2023-05-23T08:32:06.098Z,98394.59
2023-05-23T08:34:35.009Z,98395.69
2023-05-23T08:37:03.299Z,98396.03
2023-05-23T08:39:31.000Z,98394.13
2023-05-23T08:41:58.591Z,98395.50
2023-05-23T08:44:25.773Z,98388.34
2023-05-23T08:46:54.189Z,98398.81
2023-05-23T08:49:22.851Z,98390.66
2023-05-23T08:51:52.469Z,98384.69
2023-05-23T08:54:22.344Z,98394.94
2023-05-23T08:56:49.715Z,98399.78
2023-05-23T08:59:19.229Z,98391.03
2023-05-23T09:01:48.509Z,98390.31
2023-05-23T09:04:16.160Z,98393.59
2023-05-23T09:06:44.907Z,98396.38
2023-05-23T09:09:13.026Z,98389.66
2023-05-23T09:11:41.591Z,98394.28
2023-05-23T09:14:09.587Z,98400.13
2023-05-23T09:16:36.998Z,98404.19
2023-05-23T09:19:12.979Z,98399.78
2023-05-23T09:21:44.925Z,98393.75
2023-05-23T09:24:13.121Z,98403.72
2023-05-23T09:26:40.936Z,98402.16
2023-05-23T09:29:08.273Z,98394.97
2023-05-23T09:31:36.081Z,98393.19
2023-05-23T09:34:04.157Z,98396.69
2023-05-23T09:36:33.787Z,98393.87
2023-05-23T09:39:08.119Z,98396.94
2023-05-23T09:41:35.921Z,98396.22
2023-05-23T09:44:08.632Z,98394.75
2023-05-23T09:46:38.515Z,98392.47
2023-05-23T10:01:16.603Z,98393.03
2023-05-23T10:03:50.991Z,98393.03
2023-05-23T10:06:24.432Z,98390.31
2023-05-23T10:08:56.146Z,98385.94
2023-05-23T10:11:36.030Z,98381.56
2023-05-23T10:14:07.104Z,98384.09
2023-05-23T10:16:56.603Z,98368.69
2023-05-23T10:19:25.801Z,98376.87
2023-05-23T10:22:01.512Z,98363.31
2023-05-23T10:24:29.367Z,98367.31
2023-05-23T10:26:57.179Z,98367.91
2023-05-23T10:29:25.158Z,98366.06
2023-05-23T10:31:53.185Z,98357.38
2023-05-23T10:34:30.600Z,98361.03
2023-05-23T10:37:04.343Z,98357.22
2023-05-23T10:39:56.852Z,98365.56
2023-05-23T10:43:00.146Z,98369.13
2023-05-23T10:45:28.088Z,98360.03
2023-05-23T10:47:55.885Z,98354.75
2023-05-23T10:50:37.306Z,98348.63
2023-05-23T10:53:05.771Z,98361.72
2023-05-23T10:55:34.502Z,98352.97
2023-05-23T10:58:23.978Z,98351.47
2023-05-23T11:00:55.260Z,98347.75
2023-05-23T11:03:48.735Z,98343.12
2023-05-23T11:06:42.879Z,98340.25
2023-05-23T11:09:28.064Z,98336.91
2023-05-23T11:12:04.794Z,98343.94
2023-05-23T11:14:37.982Z,98335.34
2023-05-23T11:17:12.264Z,98335.34
2023-05-23T11:19:39.825Z,98329.06
2023-05-23T11:22:10.390Z,98325.50
2023-05-23T11:25:07.746Z,98325.72
2023-05-23T11:27:40.243Z,98320.41
2023-05-23T11:30:18.056Z,98316.56
2023-05-23T11:32:53.123Z,98310.69
2023-05-23T11:35:21.506Z,98307.00
2023-05-23T11:37:49.414Z,98313.22
2023-05-23T11:40:28.464Z,98302.44
2023-05-23T11:42:56.732Z,98304.50
2023-05-23T11:45:25.069Z,98299.97
2023-05-23T11:47:52.820Z,98301.63
2023-05-23T11:50:20.741Z,98286.00
2023-05-23T11:52:51.876Z,98278.72
2023-05-23T11:55:21.184Z,98293.56
2023-05-23T11:57:48.981Z,98279.50
2023-05-23T12:00:16.663Z,98281.91
2023-05-23T12:02:45.676Z,98274.81
2023-05-23T12:05:14.226Z,98268.66
2023-05-23T12:07:47.374Z,98244.16
2023-05-23T12:10:17.242Z,98264.59
2023-05-23T12:12:45.463Z,98252.38
2023-05-23T12:15:13.609Z,98255.25
2023-05-23T12:17:48.941Z,98249.38
2023-05-23T12:20:16.219Z,98248.19
2023-05-23T12:22:43.880Z,98248.78
2023-05-23T12:25:11.857Z,98246.09
2023-05-23T12:27:41.799Z,98238.47
2023-05-23T12:30:17.372Z,98229.94
2023-05-23T12:32:45.890Z,98230.44
2023-05-23T12:35:14.754Z,98235.00
2023-05-23T12:37:43.041Z,98233.66
2023-05-23T12:40:17.571Z,98225.16
2023-05-23T12:42:47.228Z,98232.13
2023-05-23T12:45:15.882Z,98225.47
2023-05-23T12:47:43.035Z,98221.69
2023-05-23T12:50:11.828Z,98224.72
2023-05-23T12:52:40.193Z,98220.47
2023-05-23T12:55:11.723Z,98220.09
2023-05-23T12:57:39.724Z,98219.38
2023-05-23T13:00:08.279Z,98205.06
2023-05-23T13:02:35.564Z,98208.66
2023-05-23T13:05:03.501Z,98203.94
2023-05-23T13:07:30.888Z,98200.31
2023-05-23T13:09:58.087Z,98194.28
2023-05-23T13:12:25.645Z,98190.88
2023-05-23T13:14:52.865Z,98183.66
2023-05-23T13:17:20.025Z,98185.44
2023-05-23T13:19:47.522Z,98184.94
2023-05-23T13:22:14.680Z,98184.12
2023-05-23T13:24:45.658Z,98183.44
2023-05-23T13:27:13.374Z,98181.09
2023-05-23T13:29:42.458Z,98180.16
2023-05-23T13:32:10.334Z,98177.06
2023-05-23T13:34:38.376Z,98178.41
2023-05-23T13:37:06.578Z,98181.41
2023-05-23T13:39:33.829Z,98185.44
2023-05-23T13:42:01.345Z,98182.94
2023-05-23T13:44:28.524Z,98188.34
2023-05-23T13:46:55.952Z,98184.38
2023-05-23T13:49:24.360Z,98189.44
2023-05-23T13:51:51.459Z,98190.28
2023-05-23T13:54:18.618Z,98196.19
2023-05-23T13:56:46.569Z,98192.75
2023-05-23T13:59:13.815Z,98192.63
2023-05-23T14:01:43.167Z,98189.47
2023-05-23T14:04:11.375Z,98181.13
2023-05-23T14:06:38.945Z,98184.97
2023-05-23T14:09:06.389Z,98180.28
2023-05-23T14:11:33.924Z,98185.41
2023-05-23T14:14:01.098Z,98183.78
2023-05-23T14:16:28.321Z,98174.97
2023-05-23T14:18:55.937Z,98185.19
2023-05-23T14:21:23.307Z,98173.00
2023-05-23T14:23:50.429Z,98168.66
2023-05-23T14:26:17.864Z,98166.00
2023-05-23T14:28:45.495Z,98159.25
2023-05-23T14:31:12.599Z,98157.31
2023-05-23T14:33:40.287Z,98156.94
2023-05-23T14:36:08.277Z,98161.22
2023-05-23T14:38:35.407Z,98164.87
2023-05-23T14:41:02.791Z,98167.88
2023-05-23T14:43:29.887Z,98159.59
2023-05-23T14:45:57.252Z,98151.78
2023-05-23T14:48:24.690Z,98151.13
2023-05-23T14:50:51.858Z,98156.13
2023-05-23T14:53:22.402Z,98149.53
2023-05-23T14:55:49.973Z,98149.34
2023-05-23T14:58:18.095Z,98141.59
2023-05-23T15:00:47.686Z,98152.62
2023-05-23T15:03:15.921Z,98141.19
2023-05-23T15:05:45.784Z,98147.44
2023-05-23T15:08:16.543Z,98150.22
2023-05-23T15:10:45.345Z,98144.53
2023-05-23T15:13:13.343Z,98148.44
2023-05-23T15:15:43.042Z,98137.44
2023-05-23T15:18:11.847Z,98144.66
2023-05-23T15:20:39.090Z,98146.38
2023-05-23T15:23:07.102Z,98148.94
2023-05-23T15:25:46.490Z,98152.69
2023-05-23T15:28:15.974Z,98154.91
2023-05-23T15:30:44.136Z,98151.03
2023-05-23T15:33:12.857Z,98162.03
2023-05-23T15:35:40.681Z,98162.75
2023-05-23T15:38:08.284Z,98172.81
2023-05-23T15:40:35.562Z,98163.63
2023-05-23T15:43:03.363Z,98162.94
2023-05-23T15:45:30.465Z,98164.06
2023-05-23T15:47:57.720Z,98161.44
2023-05-23T15:50:25.438Z,98155.22
2023-05-23T15:52:52.507Z,98148.47
2023-05-23T15:55:21.358Z,98148.44
2023-05-23T15:57:48.795Z,98147.88
2023-05-23T16:00:16.428Z,98148.91
2023-05-23T16:02:43.906Z,98151.66
2023-05-23T16:05:11.141Z,98142.72
2023-05-23T16:07:38.673Z,98143.22
2023-05-23T16:10:06.589Z,98141.16
2023-05-23T16:12:33.734Z,98144.19
2023-05-23T16:15:00.865Z,98138.44
2023-05-23T16:17:28.259Z,98145.38
2023-05-23T16:19:55.651Z,98145.00
2023-05-23T16:22:23.363Z,98135.03
2023-05-23T16:24:51.537Z,98145.16
2023-05-23T16:27:19.651Z,98142.19
2023-05-23T16:29:46.796Z,98146.91
2023-05-23T16:32:15.481Z,98158.25
2023-05-23T16:34:45.655Z,98165.50
2023-05-23T16:37:15.927Z,98163.09
2023-05-23T16:39:43.335Z,98172.81
2023-05-23T16:42:10.585Z,98170.06
2023-05-23T16:44:37.996Z,98177.94
2023-05-23T16:47:05.342Z,98170.50
2023-05-23T16:49:32.460Z,98183.72
2023-05-23T16:51:59.860Z,98177.88
2023-05-23T16:54:27.220Z,98167.03
2023-05-23T16:56:54.422Z,98172.63
2023-05-23T16:59:21.947Z,98168.22
2023-05-23T17:01:49.157Z,98170.69
2023-05-23T17:04:17.673Z,98160.47
2023-05-23T17:06:47.270Z,98175.66
2023-05-23T17:09:14.539Z,98189.03
2023-05-23T17:11:41.641Z,98184.03
2023-05-23T17:14:09.413Z,98191.25
2023-05-23T17:16:36.615Z,98233.91
2023-05-23T17:19:04.357Z,98258.50
2023-05-23T17:21:34.383Z,98272.78
2023-05-23T17:24:02.157Z,98274.09
2023-05-23T17:26:29.297Z,98277.22
2023-05-23T17:28:56.731Z,98278.69
2023-05-23T17:31:23.883Z,98267.44
2023-05-23T17:33:51.273Z,98265.88
2023-05-23T17:36:18.709Z,98261.38
2023-05-23T17:38:45.843Z,98267.88
2023-05-23T17:41:14.630Z,98267.84
2023-05-23T17:43:45.331Z,98266.19
2023-05-23T17:46:12.490Z,98268.78
2023-05-23T17:51:12.901Z,98282.34
2023-05-23T17:53:41.399Z,98279.59
2023-05-23T17:56:09.423Z,98300.34
2023-05-23T17:58:38.870Z,98285.81
2023-05-23T18:01:07.069Z,98299.97
2023-05-23T18:03:34.543Z,98305.03
2023-05-23T18:06:03.694Z,98300.81
2023-05-23T18:08:30.835Z,98306.06
2023-05-23T18:10:58.259Z,98296.06
2023-05-23T18:13:25.662Z,98306.22
2023-05-23T18:15:52.844Z,98300.19
2023-05-23T18:18:20.281Z,98300.13
2023-05-23T18:20:47.555Z,98304.69
2023-05-23T18:23:14.688Z,98297.03
2023-05-23T18:25:43.085Z,98287.06
2023-05-23T18:28:11.063Z,98291.78
2023-05-23T18:30:38.197Z,98279.22
2023-05-23T18:33:07.462Z,98283.88
2023-05-23T18:35:34.720Z,98282.81
2023-05-23T18:38:01.792Z,98293.56
2023-05-23T18:40:29.526Z,98294.75
2023-05-23T18:42:56.669Z,98271.91
2023-05-23T18:45:23.726Z,98267.31
2023-05-23T18:47:51.276Z,98263.87
2023-05-23T18:50:18.686Z,98265.03
2023-05-23T18:52:45.858Z,98264.97
2023-05-23T18:55:13.203Z,98273.88
2023-05-23T18:57:41.228Z,98275.53
2023-05-23T19:00:09.348Z,98278.16
2023-05-23T19:02:36.778Z,98276.06
2023-05-23T19:05:04.128Z,98285.72
2023-05-23T19:07:31.165Z,98281.75
2023-05-23T19:09:58.841Z,98290.56
2023-05-23T19:12:26.055Z,98281.47
2023-05-23T19:14:53.345Z,98273.69
2023-05-23T19:17:20.672Z,98280.88
2023-05-23T19:19:47.723Z,98281.31
2023-05-23T19:22:14.767Z,98282.62
2023-05-23T19:24:42.316Z,98303.38
2023-05-23T19:27:09.408Z,98299.72
2023-05-23T19:29:36.470Z,98308.75
2023-05-23T19:32:04.030Z,98315.84
2023-05-23T19:34:31.421Z,98329.84
2023-05-23T19:37:00.516Z,98326.59
2023-05-23T19:39:27.978Z,98328.94
2023-05-23T19:41:55.035Z,98330.94
2023-05-23T19:44:22.079Z,98337.88
2023-05-23T19:46:49.429Z,98342.44
2023-05-23T19:49:19.297Z,98344.81
2023-05-23T19:51:46.684Z,98346.91
2023-05-23T19:54:15.539Z,98334.06
2023-05-23T19:56:42.816Z,98347.69
2023-05-23T19:59:09.918Z,98347.87
2023-05-23T20:01:37.353Z,98355.63
2023-05-23T20:04:08.450Z,98361.87
2023-05-23T20:06:35.558Z,98362.91
2023-05-23T20:09:02.958Z,98363.72
2023-05-23T20:11:30.992Z,98357.72
2023-05-23T20:13:58.103Z,98365.72
2023-05-23T20:16:25.922Z,98376.94
2023-05-23T20:18:54.457Z,98379.03
2023-05-23T20:21:21.679Z,98364.91
2023-05-23T20:23:49.238Z,98353.53
2023-05-23T20:26:16.675Z,98351.88
2023-05-23T20:28:43.883Z,98360.25
2023-05-23T20:31:10.915Z,98359.06
2023-05-23T20:33:38.221Z,98363.72
2023-05-23T20:36:05.628Z,98362.63
2023-05-23T20:38:34.133Z,98369.19
2023-05-23T20:41:07.326Z,98363.81
2023-05-23T20:43:37.440Z,98362.91
2023-05-23T20:46:05.943Z,98364.25
2023-05-23T20:48:33.613Z,98372.19
2023-05-23T20:51:00.936Z,98381.62
2023-05-23T20:53:28.472Z,98388.88
2023-05-23T20:55:55.987Z,98392.00
2023-05-23T20:58:23.250Z,98393.72
2023-05-23T21:00:50.964Z,98390.84
2023-05-23T21:03:18.235Z,98401.75
2023-05-23T21:05:45.797Z,98401.75
2023-05-23T21:08:13.269Z,98407.53
2023-05-23T21:10:40.532Z,98405.66
2023-05-23T21:13:08.034Z,98411.12
2023-05-23T21:15:35.761Z,98412.81
2023-05-23T21:18:03.010Z,98418.78
2023-05-23T21:20:30.665Z,98419.41
2023-05-23T21:22:58.078Z,98422.75
2023-05-23T21:25:25.490Z,98429.66
2023-05-23T21:27:52.598Z,98424.06
2023-05-23T21:30:20.181Z,98425.09
2023-05-23T21:32:52.604Z,98425.44
2023-05-23T21:35:20.131Z,98433.50
2023-05-23T21:37:47.308Z,98436.66
2023-05-23T21:40:14.465Z,98442.75
2023-05-23T21:42:41.846Z,98443.91
2023-05-23T21:45:09.351Z,98444.22
2023-05-23T21:47:36.467Z,98454.47
2023-05-23T21:50:06.763Z,98451.38
2023-05-23T21:52:33.881Z,98447.75
2023-05-23T21:55:00.998Z,98450.72
2023-05-23T21:57:28.416Z,98451.25
2023-05-23T21:59:55.698Z,98457.69
2023-05-23T22:02:22.816Z,98462.13
2023-05-23T22:04:50.335Z,98467.38
2023-05-23T22:07:17.469Z,98465.09
2023-05-23T22:09:44.638Z,98464.09
2023-05-23T22:12:13.616Z,98469.22
2023-05-23T22:14:40.897Z,98472.00
2023-05-23T22:17:08.119Z,98467.72
2023-05-23T22:19:36.554Z,98468.87
2023-05-23T22:22:03.964Z,98468.56
2023-05-23T22:24:31.270Z,98470.38
2023-05-23T22:26:58.698Z,98473.34
2023-05-23T22:29:25.988Z,98465.78
2023-05-23T22:31:53.130Z,98475.00
2023-05-23T22:34:20.685Z,98477.00
2023-05-23T22:36:50.865Z,98470.25
2023-05-23T22:39:18.276Z,98472.06
2023-05-23T22:41:45.719Z,98479.31
2023-05-23T22:44:12.844Z,98465.47
2023-05-23T22:46:42.798Z,98476.66
2023-05-23T22:49:10.298Z,98472.38
2023-05-23T22:51:37.392Z,98469.41
2023-05-23T22:54:04.509Z,98472.69
2023-05-23T22:56:31.916Z,98466.12
2023-05-23T22:58:59.007Z,98463.81
2023-05-23T23:01:26.362Z,98462.66
2023-05-23T23:03:53.852Z,98459.19
2023-05-23T23:06:21.071Z,98458.53
2023-05-23T23:08:48.199Z,98463.97
2023-05-23T23:11:15.611Z,98470.75
2023-05-23T23:13:42.808Z,98474.34
2023-05-23T23:16:09.858Z,98475.66
2023-05-23T23:18:37.363Z,98477.97
2023-05-23T23:21:04.445Z,98478.28
2023-05-23T23:23:31.502Z,98464.78
2023-05-23T23:25:59.527Z,98472.69
2023-05-23T23:28:26.779Z,98463.81
2023-05-23T23:30:53.937Z,98471.06
2023-05-23T23:33:21.713Z,98467.41
2023-05-23T23:35:49.175Z,98474.03
2023-05-23T23:38:16.471Z,98478.63
2023-05-23T23:40:45.794Z,98477.00
2023-05-23T23:43:13.778Z,98481.94
2023-05-23T23:45:40.923Z,98476.66
2023-05-23T23:48:08.513Z,98475.16
2023-05-23T23:50:35.577Z,98476.47
2023-05-23T23:53:02.909Z,98474.81
2023-05-23T23:55:30.253Z,98471.38
2023-05-23T23:57:57.844Z,98473.19
